Roundup, MT (59073)

9:26 AM MDT on October 22, 2014 (GMT -0600)
RAWS HORSE THIEF MT US | Change Station
CLOSE
Current Station
Personal Weather Station
Location: Roundup, MT
Elevation: 3479 ft
Nearby Weather Stations

Elev 3479 ft 46.43 °N, 108.67 °W | Updated 47 minutes ago

Clear
Clear
44 °F
Feels Like 42 °F
N
4
Wind Variable Wind from SW
Gusts 12.0 mph

Today
High -- | Low -- °F
--% Chance of Precip.
Yesterday
High -- | Low -- °F
Precip. -- in
7:41 AM 6:15 PM
Waning Crescent, 2% visible
Pressure 30.02 in
Visibility 10.0 miles
Clouds Clear
Windchill 42 °F
Dew Point 31 °F
Humidity 59%
Rainfall 0.00 in
Snow Depth Not available.
UV 1 out of 12
Pollen 2.60 out of 12
Air Quality Not available.
Flu Activity No Activity
METAR KBIL 221453Z 22011KT 10SM CLR 07/M03 A3002 RMK AO2 SLP165 T00721028 53010

More Conditions Fewer Conditions

Pressure 30.02 in
Visibility 10.0 miles
Clouds Clear
Windchill 42 °F
Dew Point 31 °F
Humidity 59%
Rainfall 0.00 in
Snow Depth Not available.
UV 1 out of 12
Pollen 2.60 out of 12
Air Quality Not available.
Flu Activity No Activity
METAR KBIL 221453Z 22011KT 10SM CLR 07/M03 A3002 RMK AO2 SLP165 T00721028 53010

More Conditions Fewer Conditions

10-Day Weather Forecast

Almanac

Astronomy

Oct. 22, 2014 Rise Set
Actual Time 7:41 AM MDT 6:15 PM MDT
Civil Twilight 7:10 AM MDT 6:45 PM MDT
Nautical Twilight 6:35 AM MDT 7:20 PM MDT
Astronomical Twilight 6:00 AM MDT 7:55 PM MDT
Moon 6:21 AM MDT 5:46 PM MDT
Length of Visible Light 11h 35m
Length of Day
10h 33m
Tomorrow will be 3m 6s shorter.
Waning Crescent, 2% of the Moon is Illuminated
Today
Waning Crescent
Oct 23
New
Oct 30
First Quarter
Nov 6
Full
Nov 14
Last Quarter

Today's Extremes

State Highs State Lows

Community

WunderPhotos

Upload Photos

1,763,949 photos uploaded!

Nearby

Snow Depth

Station Depth Elevation
Crystal Lake 1 in 6050 ft
Daisy Peak 0 in 7600 ft
South Fork Shields 0 in 8100 ft
Burnt Mountain 1 in 5880 ft
Porcupine 0 in 6500 ft

Earthquake Activity

City Distance Mag. Time & Date
No recent earthquake activity has been reported nearby.
Minimum magnitude displayed is 2.5.

Coastal Water Temperatures

Place Temperature
No Stations Reporting

Nearby Weather Stations